Clarksburg, Massachusetts
Current Conditions -  °F | °C
As of 7:52 PM on Friday 28 Nov 2014 (Local Time) from KAQW Reporting Station
Overcast Overcast  
Wind Chill: 12°   Ceiling: 4700
Heat Index: 23°   Visibility: 10mi
Dew Point: 16°   Wind: 12mph
Humidity: 74%   Direction: 260°W
Pressure: 30.18"   Gusts: NA
Location:  42.6996°N, 73.0936°W
Report Text: KAQW 290052Z AUTO 26010KT 10SM OVC047 M05/M09 A3018 RMK AO2 SLP229 T10501089
Loading
Personal Weather Stations






























Interactive Weather Map New forecast layout! Learn more

10-Day Weather Forecast

Advertisements
Track Severe Weather on mobile